createdAt,value
2019-01-17T00:01:03.602Z,1.60
2019-01-17T00:03:36.269Z,1.43
2019-01-17T00:06:21.407Z,2.13
2019-01-17T00:08:57.241Z,0.90
2019-01-17T00:11:39.106Z,1.70
2019-01-17T00:14:09.088Z,1.40
2019-01-17T00:16:48.241Z,1.63
2019-01-17T00:19:34.400Z,2.40
2019-01-17T00:22:07.341Z,2.23
2019-01-17T00:24:37.338Z,1.43
2019-01-17T00:27:19.429Z,3.57
2019-01-17T00:29:55.377Z,1.37
2019-01-17T00:32:25.358Z,2.77
2019-01-17T00:35:07.281Z,2.13
2019-01-17T00:37:52.270Z,1.70
2019-01-17T00:40:22.237Z,1.30
2019-01-17T00:43:08.758Z,3.63
2019-01-17T00:45:41.694Z,1.43
2019-01-17T00:48:17.678Z,1.70
2019-01-17T00:51:04.337Z,3.43
2019-01-17T00:53:36.991Z,2.67
2019-01-17T00:56:19.144Z,3.37
2019-01-17T00:58:49.117Z,2.20
2019-01-17T01:01:35.300Z,1.17
2019-01-17T01:04:06.121Z,2.07
2019-01-17T01:06:48.038Z,1.47
2019-01-17T01:09:18.006Z,1.20
2019-01-17T01:12:04.245Z,2.20
2019-01-17T01:14:42.975Z,3.60
2019-01-17T01:17:21.755Z,1.00
2019-01-17T01:20:00.938Z,2.07
2019-01-17T01:22:39.866Z,5.10
2019-01-17T01:25:13.324Z,2.77
2019-01-17T01:27:52.521Z,2.43
2019-01-17T01:30:38.997Z,3.53
2019-01-17T01:33:14.954Z,4.03
2019-01-17T01:36:00.192Z,1.90
2019-01-17T01:38:35.897Z,3.63
2019-01-17T01:41:14.643Z,3.30
2019-01-17T01:43:50.598Z,1.90
2019-01-17T01:46:37.105Z,3.13
2019-01-17T01:49:09.945Z,3.43
2019-01-17T01:51:48.998Z,4.43
2019-01-17T01:54:22.047Z,4.73
2019-01-17T01:56:47.364Z,4.90
2019-01-17T01:59:15.705Z,3.13
2019-01-17T02:01:44.045Z,4.90
2019-01-17T02:04:12.376Z,7.73
2019-01-17T02:06:40.778Z,5.70
2019-01-17T02:09:09.115Z,7.60
2019-01-17T02:11:37.437Z,6.43
2019-01-17T02:14:05.781Z,5.20
2019-01-17T02:16:34.134Z,4.67
2019-01-17T02:19:02.476Z,4.30
2019-01-17T02:21:30.821Z,4.97
2019-01-17T02:23:59.155Z,5.60
2019-01-17T02:26:27.497Z,4.83
2019-01-17T02:28:55.838Z,7.33
2019-01-17T02:31:24.184Z,4.73
2019-01-17T02:33:52.539Z,7.07
2019-01-17T02:36:20.866Z,5.33
2019-01-17T02:38:49.213Z,6.43
2019-01-17T02:41:17.551Z,6.63
2019-01-17T02:43:45.892Z,5.60
2019-01-17T02:46:14.220Z,9.10
2019-01-17T02:48:42.544Z,4.47
2019-01-17T02:51:10.883Z,6.87
2019-01-17T02:53:39.210Z,8.93
2019-01-17T02:56:07.559Z,5.90
2019-01-17T02:58:35.884Z,6.37
2019-01-17T03:01:04.300Z,3.47
2019-01-17T03:03:32.629Z,5.70
2019-01-17T03:06:00.962Z,2.30
2019-01-17T03:08:29.318Z,3.97
2019-01-17T03:10:57.644Z,5.70
2019-01-17T03:13:25.979Z,4.10
2019-01-17T03:15:54.317Z,3.87
2019-01-17T03:18:24.323Z,5.43
2019-01-17T03:20:52.666Z,3.73
2019-01-17T03:23:20.998Z,7.37
2019-01-17T03:25:49.337Z,2.87
2019-01-17T03:28:17.657Z,2.73
2019-01-17T03:30:46.006Z,5.57
2019-01-17T03:33:14.333Z,5.90
2019-01-17T03:35:42.659Z,8.90
2019-01-17T03:38:11.013Z,6.33
2019-01-17T03:40:39.339Z,6.10
2019-01-17T03:43:07.665Z,6.53
2019-01-17T03:45:36.081Z,7.20
2019-01-17T03:48:04.410Z,7.43
2019-01-17T03:50:32.821Z,4.30
2019-01-17T03:53:01.166Z,6.90
2019-01-17T03:55:29.489Z,8.70
2019-01-17T03:57:57.834Z,9.90
2019-01-17T04:00:26.170Z,10.03
2019-01-17T04:02:54.501Z,7.60
2019-01-17T04:05:22.842Z,4.77
2019-01-17T04:07:51.160Z,6.37
2019-01-17T04:10:19.508Z,8.20
2019-01-17T04:12:47.833Z,5.30
2019-01-17T04:15:16.169Z,6.97
2019-01-17T04:17:44.517Z,11.67
2019-01-17T04:20:14.813Z,11.83
2019-01-17T04:22:43.152Z,6.20
2019-01-17T04:25:11.488Z,11.27
2019-01-17T04:27:39.809Z,7.27
2019-01-17T04:30:12.342Z,10.83
2019-01-17T04:32:40.681Z,12.20
2019-01-17T04:35:09.043Z,5.70
2019-01-17T04:37:37.426Z,8.67
2019-01-17T04:40:07.637Z,15.60
2019-01-17T04:42:35.964Z,8.47
2019-01-17T04:45:05.079Z,13.83
2019-01-17T04:47:33.438Z,10.27
2019-01-17T04:50:01.790Z,16.50
2019-01-17T04:52:31.019Z,10.23
2019-01-17T04:55:05.138Z,17.73
2019-01-17T04:57:29.382Z,6.37
2019-01-17T04:59:58.002Z,13.50
2019-01-17T05:02:26.345Z,14.67
2019-01-17T05:04:54.685Z,19.07
2019-01-17T05:07:23.038Z,10.93
2019-01-17T05:09:51.376Z,14.40
2019-01-17T05:12:19.727Z,17.43
2019-01-17T05:14:48.377Z,9.80
2019-01-17T05:17:16.709Z,16.37
2019-01-17T05:19:45.057Z,15.43
2019-01-17T05:22:13.390Z,8.50
2019-01-17T05:24:41.729Z,17.60
2019-01-17T05:27:10.075Z,8.93
2019-01-17T05:29:38.412Z,18.33
2019-01-17T05:32:06.748Z,13.20
2019-01-17T05:34:39.361Z,16.87
2019-01-17T05:37:05.133Z,14.50
2019-01-17T05:39:33.485Z,17.67
2019-01-17T05:42:01.825Z,19.57
2019-01-17T05:44:30.957Z,23.50
2019-01-17T05:46:59.305Z,22.83
2019-01-17T05:49:27.658Z,10.43
2019-01-17T05:51:55.989Z,11.60
2019-01-17T05:54:24.350Z,17.10
2019-01-17T05:56:53.066Z,16.47
2019-01-17T05:59:21.414Z,19.90
2019-01-17T06:01:49.762Z,18.00
2019-01-17T06:04:18.103Z,20.70
2019-01-17T06:06:46.449Z,18.67
2019-01-17T06:09:14.797Z,18.33
2019-01-17T06:11:43.145Z,17.70
2019-01-17T06:14:11.494Z,20.50
2019-01-17T06:16:39.841Z,21.70
2019-01-17T06:19:08.192Z,15.93
2019-01-17T06:21:36.537Z,17.50
2019-01-17T06:24:04.880Z,20.70
2019-01-17T06:26:33.234Z,12.10
2019-01-17T06:29:01.582Z,18.00
2019-01-17T06:31:29.940Z,18.93
2019-01-17T06:33:58.296Z,20.30
2019-01-17T06:36:26.921Z,15.63
2019-01-17T06:38:55.260Z,9.53
2019-01-17T06:41:23.614Z,11.20
2019-01-17T06:43:51.975Z,21.53
2019-01-17T06:46:20.329Z,17.73
2019-01-17T06:48:48.693Z,18.70
2019-01-17T06:51:17.034Z,19.97
2019-01-17T06:53:45.397Z,17.57
2019-01-17T06:56:13.871Z,10.63
2019-01-17T06:58:42.212Z,17.73
2019-01-17T07:01:10.582Z,22.43
2019-01-17T07:03:38.937Z,22.70
2019-01-17T07:06:07.795Z,21.00
2019-01-17T07:08:36.154Z,25.30
2019-01-17T07:11:05.173Z,26.37
2019-01-17T07:13:33.509Z,23.40
2019-01-17T07:16:01.861Z,22.23
2019-01-17T07:18:30.214Z,26.80
2019-01-17T07:20:59.445Z,20.70
2019-01-17T07:23:27.784Z,27.37
2019-01-17T07:25:56.132Z,27.80
2019-01-17T07:28:24.484Z,25.50
2019-01-17T07:30:52.834Z,23.13
2019-01-17T07:33:21.195Z,27.23
2019-01-17T07:35:49.720Z,28.33
2019-01-17T07:38:18.402Z,17.90
2019-01-17T07:40:46.769Z,23.00
2019-01-17T07:43:15.157Z,22.27
2019-01-17T07:45:43.513Z,31.33
2019-01-17T07:48:11.870Z,30.20
2019-01-17T07:50:40.208Z,22.67
2019-01-17T07:53:08.668Z,28.87
2019-01-17T07:55:37.024Z,25.93
2019-01-17T07:58:05.376Z,30.23
2019-01-17T08:00:33.727Z,35.73
2019-01-17T08:03:02.350Z,21.30
2019-01-17T08:05:30.697Z,33.40
2019-01-17T08:07:59.049Z,31.90
2019-01-17T08:10:27.404Z,15.37
2019-01-17T08:12:55.985Z,22.90
2019-01-17T08:15:24.352Z,29.73
2019-01-17T08:17:52.703Z,33.53
2019-01-17T08:20:22.212Z,25.63
2019-01-17T08:22:50.673Z,27.03
2019-01-17T08:25:19.145Z,29.50
2019-01-17T08:27:47.490Z,25.30
2019-01-17T08:30:18.482Z,20.87
2019-01-17T08:32:46.843Z,17.23
2019-01-17T08:35:15.554Z,15.73
2019-01-17T08:37:43.910Z,22.97
2019-01-17T08:40:20.118Z,19.37
2019-01-17T08:42:44.176Z,15.80
2019-01-17T08:45:12.564Z,15.73
2019-01-17T08:47:40.983Z,13.10
2019-01-17T08:50:11.009Z,10.33
2019-01-17T08:52:40.440Z,7.00
2019-01-17T08:55:08.800Z,6.90
2019-01-17T08:57:37.162Z,11.77
2019-01-17T09:00:09.994Z,7.43
2019-01-17T09:02:38.347Z,6.63
2019-01-17T09:05:07.778Z,6.47
2019-01-17T09:07:36.195Z,2.90
2019-01-17T09:10:06.597Z,2.30
2019-01-17T09:12:34.947Z,4.30
2019-01-17T09:15:04.255Z,3.37
2019-01-17T09:17:34.276Z,3.80
2019-01-17T09:20:02.614Z,3.63
2019-01-17T09:22:31.046Z,2.13
2019-01-17T09:24:59.389Z,2.67
2019-01-17T09:27:27.769Z,2.63
2019-01-17T09:29:56.096Z,1.90
2019-01-17T09:32:24.431Z,1.57
2019-01-17T09:34:52.802Z,3.37
2019-01-17T09:37:21.179Z,3.03
2019-01-17T09:39:49.558Z,3.13
2019-01-17T09:42:17.881Z,4.47
2019-01-17T09:44:46.216Z,2.00
2019-01-17T09:47:14.562Z,1.10
2019-01-17T09:49:42.897Z,1.10
2019-01-17T09:52:11.237Z,1.67
2019-01-17T09:54:39.584Z,1.13
2019-01-17T09:57:07.930Z,2.10
2019-01-17T09:59:36.270Z,1.37
2019-01-17T10:02:04.596Z,1.80
2019-01-17T10:04:32.934Z,1.83
2019-01-17T10:07:01.277Z,1.93
2019-01-17T10:09:29.622Z,1.50
2019-01-17T10:11:57.961Z,2.57
2019-01-17T10:14:26.287Z,1.80
2019-01-17T10:16:55.039Z,3.30
2019-01-17T10:19:27.919Z,2.93
2019-01-17T10:21:57.868Z,1.27
2019-01-17T10:24:37.105Z,0.70
2019-01-17T10:27:13.117Z,1.00
2019-01-17T10:29:46.041Z,0.67
2019-01-17T10:32:22.161Z,3.43
2019-01-17T10:35:04.320Z,1.13
2019-01-17T10:37:40.024Z,1.17
2019-01-17T10:40:22.121Z,1.93
2019-01-17T10:42:54.811Z,1.07
2019-01-17T10:45:27.490Z,2.17
2019-01-17T10:48:00.250Z,1.80
2019-01-17T10:50:35.389Z,1.53
2019-01-17T10:53:14.330Z,3.63
2019-01-17T10:55:44.321Z,2.00
2019-01-17T10:58:23.211Z,1.97
2019-01-17T11:00:53.193Z,2.87
2019-01-17T11:03:23.180Z,1.20
2019-01-17T11:06:08.278Z,1.83
2019-01-17T11:08:41.180Z,2.93
2019-01-17T11:11:27.545Z,1.43
2019-01-17T11:14:06.502Z,2.17
2019-01-17T11:16:39.153Z,1.83
2019-01-17T11:19:15.074Z,2.53
2019-01-17T11:21:47.812Z,2.97
2019-01-17T11:24:20.726Z,3.20
2019-01-17T11:26:53.357Z,5.60
2019-01-17T11:29:23.337Z,2.33
2019-01-17T11:32:09.965Z,2.87
2019-01-17T11:34:40.084Z,5.30
2019-01-17T11:37:28.333Z,1.27
2019-01-17T11:39:58.299Z,1.03
2019-01-17T11:42:43.266Z,1.43
2019-01-17T11:45:13.237Z,2.97
2019-01-17T11:47:43.199Z,4.30
2019-01-17T11:50:18.887Z,5.67
2019-01-17T11:52:48.909Z,3.83
2019-01-17T11:55:21.873Z,4.97
2019-01-17T11:58:06.777Z,3.77
2019-01-17T12:00:55.274Z,3.97
2019-01-17T12:03:31.067Z,3.50
2019-01-17T12:05:59.406Z,5.20
2019-01-17T12:08:27.733Z,4.60
2019-01-17T12:10:56.077Z,2.33
2019-01-17T12:13:24.396Z,6.07
2019-01-17T12:15:52.738Z,4.30
2019-01-17T12:18:21.075Z,3.13
2019-01-17T12:20:49.422Z,7.27
2019-01-17T12:23:17.756Z,4.93
2019-01-17T12:25:46.092Z,6.07
2019-01-17T12:28:16.491Z,3.53
2019-01-17T12:30:44.834Z,3.33
2019-01-17T12:33:13.174Z,8.70
2019-01-17T12:35:41.513Z,6.27
2019-01-17T12:38:10.013Z,1.97
2019-01-17T12:40:38.364Z,5.90
2019-01-17T12:43:07.770Z,7.93
2019-01-17T12:45:36.112Z,3.83
2019-01-17T12:48:04.453Z,18.30
2019-01-17T12:50:32.786Z,2.00
2019-01-17T12:53:01.126Z,12.80
2019-01-17T12:55:29.468Z,6.90
2019-01-17T12:57:57.802Z,8.53
2019-01-17T13:00:26.204Z,8.87
2019-01-17T13:02:54.534Z,8.97
2019-01-17T13:05:22.864Z,6.73
2019-01-17T13:07:51.222Z,7.57
2019-01-17T13:10:19.552Z,7.37
2019-01-17T13:12:47.896Z,7.30
2019-01-17T13:15:16.238Z,9.73
2019-01-17T13:17:44.579Z,6.73
2019-01-17T13:20:14.289Z,8.13
2019-01-17T13:22:42.612Z,4.67
2019-01-17T13:25:12.830Z,9.77
2019-01-17T13:27:41.165Z,11.73
2019-01-17T13:30:17.178Z,7.43
2019-01-17T13:32:45.506Z,40.93
2019-01-17T13:35:15.121Z,11.50
2019-01-17T13:37:43.461Z,7.30
2019-01-17T13:40:13.070Z,10.10
2019-01-17T13:42:41.405Z,3.07
2019-01-17T13:45:11.496Z,2.77
2019-01-17T13:47:39.838Z,3.83
2019-01-17T13:50:09.843Z,7.07
2019-01-17T13:52:38.178Z,8.20
2019-01-17T13:55:08.195Z,2.47
2019-01-17T13:57:37.736Z,4.60
2019-01-17T14:00:08.738Z,4.60
2019-01-17T14:02:38.133Z,0.53
2019-01-17T14:05:06.475Z,4.10
2019-01-17T14:07:34.797Z,3.50
2019-01-17T14:10:04.210Z,1.33
2019-01-17T14:12:32.612Z,3.03
2019-01-17T14:15:00.954Z,2.50
2019-01-17T14:17:29.301Z,3.57
2019-01-17T14:19:57.820Z,0.97
2019-01-17T14:22:27.138Z,6.13
2019-01-17T14:24:55.465Z,0.87
2019-01-17T14:27:23.805Z,7.13
2019-01-17T14:29:52.135Z,4.70
2019-01-17T14:32:20.484Z,2.87
2019-01-17T14:34:48.852Z,2.17
2019-01-17T14:37:17.510Z,2.13
2019-01-17T14:39:45.877Z,7.47
2019-01-17T14:42:15.101Z,3.00
2019-01-17T14:44:43.875Z,5.23
2019-01-17T14:47:12.824Z,2.23
2019-01-17T14:49:41.144Z,6.77
2019-01-17T14:52:09.490Z,3.37
2019-01-17T14:54:37.820Z,1.23
2019-01-17T14:57:06.324Z,1.30
2019-01-17T14:59:34.657Z,1.10
2019-01-17T15:02:03.119Z,1.20
2019-01-17T15:04:31.457Z,1.60
2019-01-17T15:06:59.889Z,0.97
2019-01-17T15:09:28.529Z,2.40
2019-01-17T15:11:56.858Z,1.27
2019-01-17T15:14:25.200Z,1.60
2019-01-17T15:16:53.526Z,0.97
2019-01-17T15:19:21.871Z,2.40
2019-01-17T15:21:50.198Z,1.73
2019-01-17T15:24:18.536Z,2.50
2019-01-17T15:26:46.877Z,1.60
2019-01-17T15:29:15.218Z,3.27
2019-01-17T15:31:43.559Z,2.43
2019-01-17T15:34:12.197Z,3.13
2019-01-17T15:36:40.545Z,1.40
2019-01-17T15:39:09.021Z,2.50
2019-01-17T15:41:37.362Z,3.90
2019-01-17T15:44:05.692Z,3.53
2019-01-17T15:46:34.034Z,3.17
2019-01-17T15:49:02.364Z,4.70
2019-01-17T15:51:30.707Z,1.50
2019-01-17T15:53:59.038Z,0.73
2019-01-17T15:56:27.385Z,1.90
2019-01-17T15:58:55.714Z,3.77
2019-01-17T16:01:24.051Z,1.70
2019-01-17T16:03:52.401Z,0.70
2019-01-17T16:06:20.971Z,1.47
2019-01-17T16:08:49.300Z,2.70
2019-01-17T16:11:17.735Z,1.53
2019-01-17T16:13:46.061Z,2.90
2019-01-17T16:16:14.403Z,0.97
2019-01-17T16:18:42.734Z,3.37
2019-01-17T16:21:11.218Z,2.33
2019-01-17T16:23:39.570Z,1.57
2019-01-17T16:26:07.922Z,2.60
2019-01-17T16:28:36.362Z,2.40
2019-01-17T16:31:04.709Z,1.93
2019-01-17T16:33:33.106Z,4.40
2019-01-17T16:36:01.486Z,5.17
2019-01-17T16:38:29.854Z,7.67
2019-01-17T16:40:58.240Z,3.50
2019-01-17T16:43:26.582Z,2.37
2019-01-17T16:45:56.953Z,2.77
2019-01-17T16:48:25.019Z,2.67
2019-01-17T16:50:53.496Z,3.43
2019-01-17T16:53:21.893Z,4.73
2019-01-17T16:55:50.426Z,4.00
2019-01-17T16:58:19.035Z,4.37
2019-01-17T17:00:47.410Z,3.27
2019-01-17T17:03:15.753Z,3.17
2019-01-17T17:05:44.166Z,5.23
2019-01-17T17:08:13.443Z,3.97
2019-01-17T17:10:41.815Z,4.67
2019-01-17T17:13:10.210Z,5.47
2019-01-17T17:15:38.569Z,4.93
2019-01-17T17:18:06.912Z,3.10
2019-01-17T17:20:35.233Z,4.07
2019-01-17T17:23:03.985Z,4.73
2019-01-17T17:25:32.317Z,4.10
2019-01-17T17:28:00.650Z,6.60
2019-01-17T17:30:28.981Z,5.60
2019-01-17T17:32:57.842Z,5.27
2019-01-17T17:35:26.520Z,4.13
2019-01-17T17:37:54.849Z,5.97
2019-01-17T17:40:24.678Z,6.07
2019-01-17T17:42:53.244Z,5.97
2019-01-17T17:45:21.646Z,4.50
2019-01-17T17:47:50.061Z,4.80
2019-01-17T17:50:22.682Z,6.63
2019-01-17T17:52:51.042Z,4.30
2019-01-17T17:55:19.501Z,5.43
2019-01-17T17:57:48.099Z,5.27
2019-01-17T18:00:22.693Z,4.27
2019-01-17T18:02:51.402Z,3.73
2019-01-17T18:05:19.752Z,5.40
2019-01-17T18:07:48.338Z,5.00
2019-01-17T18:10:16.711Z,6.30
2019-01-17T18:12:59.599Z,3.30
2019-01-17T18:15:30.055Z,5.07
2019-01-17T18:17:58.405Z,3.47
2019-01-17T18:20:26.733Z,3.13
2019-01-17T18:22:55.112Z,6.90
2019-01-17T18:25:23.559Z,7.00
2019-01-17T18:27:51.900Z,3.13
2019-01-17T18:30:26.695Z,4.67
2019-01-17T18:32:55.110Z,1.97
2019-01-17T18:35:23.440Z,2.40
2019-01-17T18:37:52.073Z,2.37
2019-01-17T18:40:21.140Z,3.83
2019-01-17T18:42:49.548Z,3.30
2019-01-17T18:45:19.511Z,2.17
2019-01-17T18:47:49.007Z,2.37
2019-01-17T18:50:18.511Z,2.43
2019-01-17T18:52:46.846Z,1.80
2019-01-17T18:55:15.180Z,2.20
2019-01-17T18:57:45.930Z,2.20
2019-01-17T19:00:17.673Z,1.27
2019-01-17T19:02:46.079Z,1.67
2019-01-17T19:05:14.888Z,2.67
2019-01-17T19:07:44.302Z,1.07
2019-01-17T19:10:13.208Z,0.90
2019-01-17T19:12:41.547Z,1.13
2019-01-17T19:15:11.521Z,0.90
2019-01-17T19:17:39.858Z,1.93
2019-01-17T19:20:09.824Z,2.37
2019-01-17T19:22:40.292Z,2.00
2019-01-17T19:25:09.705Z,4.27
2019-01-17T19:27:38.104Z,0.90
2019-01-17T19:30:09.342Z,1.07
2019-01-17T19:32:39.122Z,0.90
2019-01-17T19:35:08.023Z,3.73
2019-01-17T19:37:36.345Z,1.77
2019-01-17T19:40:06.298Z,1.37
2019-01-17T19:42:35.695Z,2.37
2019-01-17T19:45:05.768Z,3.67
2019-01-17T19:47:34.098Z,3.57
2019-01-17T19:50:02.778Z,3.73
2019-01-17T19:52:31.181Z,6.93
2019-01-17T19:54:59.529Z,4.57
2019-01-17T19:57:27.866Z,4.73
2019-01-17T19:59:56.197Z,4.23
2019-01-17T20:02:24.532Z,3.30
2019-01-17T20:04:52.882Z,3.53
2019-01-17T20:07:21.284Z,2.10
2019-01-17T20:09:49.621Z,2.27
2019-01-17T20:12:17.960Z,3.57
2019-01-17T20:14:46.290Z,5.60
2019-01-17T20:17:14.630Z,4.00
2019-01-17T20:19:42.960Z,2.90
2019-01-17T20:22:12.660Z,2.50
2019-01-17T20:24:41.006Z,2.43
2019-01-17T20:27:09.346Z,2.43
2019-01-17T20:29:37.746Z,0.70
2019-01-17T20:32:06.080Z,4.80
2019-01-17T20:34:35.702Z,1.43
2019-01-17T20:37:04.037Z,1.63
2019-01-17T20:39:32.408Z,3.33
2019-01-17T20:42:00.738Z,4.23
2019-01-17T20:44:29.140Z,2.60
2019-01-17T20:46:57.659Z,5.63
2019-01-17T20:49:25.993Z,3.77
2019-01-17T20:51:54.317Z,3.27
2019-01-17T20:54:22.654Z,1.70
2019-01-17T20:56:51.470Z,5.10
2019-01-17T20:59:19.808Z,2.70
2019-01-17T21:01:49.836Z,0.90
2019-01-17T21:04:18.182Z,6.70
2019-01-17T21:06:46.509Z,6.90
2019-01-17T21:09:14.868Z,6.27
2019-01-17T21:11:43.193Z,8.70
2019-01-17T21:14:11.524Z,3.67
2019-01-17T21:16:40.192Z,2.37
2019-01-17T21:19:08.529Z,3.97
2019-01-17T21:21:36.873Z,4.87
2019-01-17T21:24:05.219Z,3.17
2019-01-17T21:26:33.548Z,5.00
2019-01-17T21:29:01.884Z,4.93
2019-01-17T21:31:30.229Z,6.50
2019-01-17T21:33:58.573Z,3.30
2019-01-17T21:36:26.915Z,3.80
2019-01-17T21:38:55.237Z,4.20
2019-01-17T21:41:23.573Z,5.67
2019-01-17T21:43:51.901Z,3.97
2019-01-17T21:46:20.278Z,6.17
2019-01-17T21:48:48.633Z,7.00
2019-01-17T21:51:16.973Z,3.37
2019-01-17T21:53:45.744Z,2.63
2019-01-17T21:56:14.419Z,4.03
2019-01-17T21:58:42.806Z,5.37
2019-01-17T22:01:11.152Z,6.47
2019-01-17T22:03:39.486Z,5.17
2019-01-17T22:06:07.825Z,3.13
2019-01-17T22:08:37.425Z,7.60
2019-01-17T22:11:05.750Z,4.80
2019-01-17T22:13:34.086Z,3.23
2019-01-17T22:16:02.433Z,4.80
2019-01-17T22:18:30.769Z,2.90
2019-01-17T22:20:59.373Z,5.03
2019-01-17T22:23:27.711Z,1.87
2019-01-17T22:25:56.036Z,4.50
2019-01-17T22:28:24.373Z,6.30
2019-01-17T22:30:52.702Z,4.70
2019-01-17T22:33:21.045Z,6.37
2019-01-17T22:35:49.381Z,7.23
2019-01-17T22:38:17.713Z,4.27
2019-01-17T22:40:46.416Z,6.20
2019-01-17T22:43:14.757Z,2.80
2019-01-17T22:45:44.249Z,6.60
2019-01-17T22:48:12.589Z,9.07
2019-01-17T22:50:40.926Z,9.73
2019-01-17T22:53:09.259Z,5.57
2019-01-17T22:55:37.588Z,3.47
2019-01-17T22:58:05.919Z,7.47
2019-01-17T23:00:55.584Z,6.83
2019-01-17T23:03:28.690Z,3.03
2019-01-17T23:05:57.038Z,6.17
2019-01-17T23:08:25.371Z,4.17
2019-01-17T23:10:53.705Z,4.53
2019-01-17T23:13:22.033Z,4.33
2019-01-17T23:15:50.377Z,4.67
2019-01-17T23:18:19.978Z,3.73
2019-01-17T23:20:48.317Z,5.13
2019-01-17T23:23:16.657Z,4.90
2019-01-17T23:25:44.995Z,4.17
2019-01-17T23:28:13.389Z,2.63
2019-01-17T23:30:41.722Z,1.97
2019-01-17T23:33:10.058Z,3.57
2019-01-17T23:35:38.385Z,6.93
2019-01-17T23:38:06.722Z,5.73
2019-01-17T23:40:35.066Z,3.57
2019-01-17T23:43:03.396Z,8.03
2019-01-17T23:45:31.741Z,4.90
2019-01-17T23:48:00.087Z,6.07
2019-01-17T23:50:28.423Z,3.43
2019-01-17T23:52:56.766Z,3.07
2019-01-17T23:55:25.093Z,5.97
2019-01-17T23:57:53.428Z,5.40
